sensor_id;sensor_type;location;lat;lon;timestamp;pressure;altitude;pressure_sealevel;temperature;humidity
74435;BME280;62867;52.038;29.256;2022-09-09T00:04:01;1030.3;;;7.8;64.3
74435;BME280;62867;52.038;29.256;2022-09-09T00:08:36;1030.2;;;7.7;64.1
74435;BME280;62867;52.038;29.256;2022-09-09T00:13:27;1030.3;;;7.7;63.8
74435;BME280;62867;52.038;29.256;2022-09-09T00:19:38;1030.3;;;7.6;64.2
74435;BME280;62867;52.038;29.256;2022-09-09T00:24:08;1030.3;;;7.6;64.2
74435;BME280;62867;52.038;29.256;2022-09-09T00:28:50;1030.4;;;7.6;63.9
74435;BME280;62867;52.038;29.256;2022-09-09T00:33:51;1030.4;;;7.5;64
74435;BME280;62867;52.038;29.256;2022-09-09T00:39:03;1030.3;;;7.5;64.1
74435;BME280;62867;52.038;29.256;2022-09-09T00:44:03;1030.3;;;7.4;64
74435;BME280;62867;52.038;29.256;2022-09-09T00:48:47;1030.3;;;7.3;64.1
74435;BME280;62867;52.038;29.256;2022-09-09T00:53:34;1030.2;;;7.3;64.2
74435;BME280;62867;52.038;29.256;2022-09-09T00:58:33;1030.3;;;7.2;64.5
74435;BME280;62867;52.038;29.256;2022-09-09T01:03:33;1030.4;;;7.2;64.7
74435;BME280;62867;52.038;29.256;2022-09-09T01:08:36;1030.4;;;7.1;64.5
74435;BME280;62867;52.038;29.256;2022-09-09T01:13:30;1030.4;;;7.1;64.8
74435;BME280;62867;52.038;29.256;2022-09-09T01:18:57;1030.5;;;7.1;64.7
74435;BME280;62867;52.038;29.256;2022-09-09T01:24:03;1030.6;;;7.1;64.9
74435;BME280;62867;52.038;29.256;2022-09-09T01:28:46;1030.6;;;7.1;65.2
74435;BME280;62867;52.038;29.256;2022-09-09T01:34:19;1030.6;;;7.2;65
74435;BME280;62867;52.038;29.256;2022-09-09T01:38:57;1030.5;;;7.1;64.9
74435;BME280;62867;52.038;29.256;2022-09-09T01:43:33;1030.6;;;7.1;64.8
74435;BME280;62867;52.038;29.256;2022-09-09T01:48:33;1030.6;;;7.1;65.5
74435;BME280;62867;52.038;29.256;2022-09-09T01:53:27;1030.6;;;7.1;65.5
74435;BME280;62867;52.038;29.256;2022-09-09T02:03:49;1030.5;;;7.1;65.2
74435;BME280;62867;52.038;29.256;2022-09-09T02:08:52;1030.5;;;7;65.4
74435;BME280;62867;52.038;29.256;2022-09-09T02:13:53;1030.4;;;7.1;65.7
74435;BME280;62867;52.038;29.256;2022-09-09T02:18:57;1030.4;;;7.1;65.6
74435;BME280;62867;52.038;29.256;2022-09-09T02:23:43;1030.4;;;7.1;65.4
74435;BME280;62867;52.038;29.256;2022-09-09T02:28:50;1030.3;;;7.1;65.1
74435;BME280;62867;52.038;29.256;2022-09-09T02:33:44;1030.4;;;7.1;65.1
74435;BME280;62867;52.038;29.256;2022-09-09T02:38:33;1030.3;;;7.2;66.5
74435;BME280;62867;52.038;29.256;2022-09-09T02:43:34;1030.2;;;7.2;66.8
74435;BME280;62867;52.038;29.256;2022-09-09T02:49:09;1030.2;;;7.3;66.8
74435;BME280;62867;52.038;29.256;2022-09-09T02:54:10;1030.2;;;7.4;66.4
74435;BME280;62867;52.038;29.256;2022-09-09T02:58:23;1030.2;;;7.4;66.6
74435;BME280;62867;52.038;29.256;2022-09-09T03:03:45;1030.2;;;7.4;66.3
74435;BME280;62867;52.038;29.256;2022-09-09T03:08:53;1030.4;;;7.5;66.3
74435;BME280;62867;52.038;29.256;2022-09-09T03:14:04;1030.5;;;7.5;66
74435;BME280;62867;52.038;29.256;2022-09-09T03:18:33;1030.5;;;7.6;66
74435;BME280;62867;52.038;29.256;2022-09-09T03:23:23;1030.5;;;7.6;65.8
74435;BME280;62867;52.038;29.256;2022-09-09T03:28:39;1030.5;;;7.6;66.1
74435;BME280;62867;52.038;29.256;2022-09-09T03:33:33;1030.4;;;7.7;65.9
74435;BME280;62867;52.038;29.256;2022-09-09T03:38:37;1030.4;;;7.6;66
74435;BME280;62867;52.038;29.256;2022-09-09T03:43:39;1030.5;;;7.7;66.3
74435;BME280;62867;52.038;29.256;2022-09-09T03:48:55;1030.5;;;7.7;66.4
74435;BME280;62867;52.038;29.256;2022-09-09T03:53:53;1030.5;;;7.8;66.5
74435;BME280;62867;52.038;29.256;2022-09-09T03:59:03;1030.6;;;7.9;66.1
74435;BME280;62867;52.038;29.256;2022-09-09T04:03:55;1030.7;;;8;65.8
74435;BME280;62867;52.038;29.256;2022-09-09T04:09:03;1030.7;;;8.1;65.6
74435;BME280;62867;52.038;29.256;2022-09-09T04:14:05;1030.7;;;8.2;65.3
74435;BME280;62867;52.038;29.256;2022-09-09T04:18:32;1030.8;;;8.4;64.6
74435;BME280;62867;52.038;29.256;2022-09-09T04:23:39;1030.8;;;8.4;64.3
74435;BME280;62867;52.038;29.256;2022-09-09T04:28:55;1030.9;;;8.5;64.2
74435;BME280;62867;52.038;29.256;2022-09-09T04:34:08;1030.9;;;8.6;64.1
74435;BME280;62867;52.038;29.256;2022-09-09T04:38:51;1031;;;8.7;64
74435;BME280;62867;52.038;29.256;2022-09-09T04:43:55;1031.1;;;8.8;64
74435;BME280;62867;52.038;29.256;2022-09-09T04:48:53;1031.1;;;8.9;63.8
74435;BME280;62867;52.038;29.256;2022-09-09T04:53:41;1031;;;9;63.8
74435;BME280;62867;52.038;29.256;2022-09-09T04:58:43;1030.9;;;9.2;63.4
74435;BME280;62867;52.038;29.256;2022-09-09T05:03:53;1030.9;;;9.3;62.9
74435;BME280;62867;52.038;29.256;2022-09-09T05:08:23;1030.8;;;9.3;62.8
74435;BME280;62867;52.038;29.256;2022-09-09T05:13:33;1030.8;;;9.4;62.3
74435;BME280;62867;52.038;29.256;2022-09-09T05:18:35;1030.8;;;9.5;62
74435;BME280;62867;52.038;29.256;2022-09-09T05:24:11;1030.7;;;9.6;62
74435;BME280;62867;52.038;29.256;2022-09-09T05:28:59;1030.9;;;9.6;61.6
74435;BME280;62867;52.038;29.256;2022-09-09T05:33:47;1030.8;;;9.7;61.4
74435;BME280;62867;52.038;29.256;2022-09-09T05:38:49;1030.7;;;10;60.8
74435;BME280;62867;52.038;29.256;2022-09-09T05:44:09;1030.7;;;10.1;60.1
74435;BME280;62867;52.038;29.256;2022-09-09T05:49:09;1030.8;;;10.1;59.9
74435;BME280;62867;52.038;29.256;2022-09-09T05:53:23;1030.8;;;10.3;60.1
74435;BME280;62867;52.038;29.256;2022-09-09T05:58:34;1030.8;;;10.8;58.6
74435;BME280;62867;52.038;29.256;2022-09-09T06:03:59;1030.9;;;11.2;57.8
74435;BME280;62867;52.038;29.256;2022-09-09T06:08:52;1030.8;;;11.6;57.5
74435;BME280;62867;52.038;29.256;2022-09-09T06:13:43;1030.8;;;11.9;56.8
74435;BME280;62867;52.038;29.256;2022-09-09T06:18:33;1030.9;;;12.2;55.9
74435;BME280;62867;52.038;29.256;2022-09-09T06:23:33;1030.9;;;12.5;54.6
74435;BME280;62867;52.038;29.256;2022-09-09T06:29:07;1031;;;12.6;54
74435;BME280;62867;52.038;29.256;2022-09-09T06:33:53;1031;;;12.7;53.2
74435;BME280;62867;52.038;29.256;2022-09-09T06:39:09;1030.9;;;13;53
74435;BME280;62867;52.038;29.256;2022-09-09T06:44:09;1030.9;;;13.3;52.8
74435;BME280;62867;52.038;29.256;2022-09-09T06:48:46;1030.9;;;13.6;52.6
74435;BME280;62867;52.038;29.256;2022-09-09T06:53:45;1031;;;13.8;52.1
74435;BME280;62867;52.038;29.256;2022-09-09T06:59:00;1030.9;;;14.1;51.7
74435;BME280;62867;52.038;29.256;2022-09-09T07:04:11;1030.9;;;14.6;51
74435;BME280;62867;52.038;29.256;2022-09-09T07:08:56;1030.8;;;14.9;50.6
74435;BME280;62867;52.038;29.256;2022-09-09T07:14:00;1030.7;;;15.2;49.4
74435;BME280;62867;52.038;29.256;2022-09-09T07:18:57;1030.7;;;15.5;48.5
74435;BME280;62867;52.038;29.256;2022-09-09T07:23:45;1030.7;;;15.7;47.2
74435;BME280;62867;52.038;29.256;2022-09-09T07:28:25;1030.6;;;15.7;47.1
74435;BME280;62867;52.038;29.256;2022-09-09T07:33:58;1030.7;;;15.7;46.4
74435;BME280;62867;52.038;29.256;2022-09-09T07:38:23;1030.7;;;15.8;45.9
74435;BME280;62867;52.038;29.256;2022-09-09T07:43:33;1030.8;;;15.9;45.7
74435;BME280;62867;52.038;29.256;2022-09-09T07:48:44;1030.8;;;16;45.6
74435;BME280;62867;52.038;29.256;2022-09-09T07:54:12;1030.8;;;16.1;45.6
74435;BME280;62867;52.038;29.256;2022-09-09T07:58:58;1030.8;;;16.2;45.3
74435;BME280;62867;52.038;29.256;2022-09-09T08:04:06;1030.9;;;16.3;45.2
74435;BME280;62867;52.038;29.256;2022-09-09T08:08:50;1030.9;;;16.4;44.4
74435;BME280;62867;52.038;29.256;2022-09-09T08:14:11;1030.9;;;16.4;43.1
74435;BME280;62867;52.038;29.256;2022-09-09T08:19:11;1030.9;;;16.3;42.8
74435;BME280;62867;52.038;29.256;2022-09-09T08:23:23;1030.9;;;16.3;42.3
74435;BME280;62867;52.038;29.256;2022-09-09T08:28:33;1030.8;;;16.3;42.4
74435;BME280;62867;52.038;29.256;2022-09-09T08:33:23;1030.9;;;16.5;42.5
74435;BME280;62867;52.038;29.256;2022-09-09T08:38:23;1030.8;;;16.6;42
74435;BME280;62867;52.038;29.256;2022-09-09T08:43:46;1030.8;;;16.9;42.2
74435;BME280;62867;52.038;29.256;2022-09-09T08:48:50;1030.8;;;17.3;41.4
74435;BME280;62867;52.038;29.256;2022-09-09T08:54:03;1030.7;;;17.6;40.6
74435;BME280;62867;52.038;29.256;2022-09-09T08:59:14;1030.6;;;17.8;40.9
74435;BME280;62867;52.038;29.256;2022-09-09T09:09:18;1030.6;;;18;39.2
74435;BME280;62867;52.038;29.256;2022-09-09T09:14:21;1030.5;;;18;38.7
74435;BME280;62867;52.038;29.256;2022-09-09T09:18:33;1030.5;;;18;38.7
74435;BME280;62867;52.038;29.256;2022-09-09T09:24:14;1030.5;;;18.1;38.3
74435;BME280;62867;52.038;29.256;2022-09-09T09:28:33;1030.5;;;18.1;37.8
74435;BME280;62867;52.038;29.256;2022-09-09T09:34:03;1030.4;;;18;38.3
74435;BME280;62867;52.038;29.256;2022-09-09T09:38:55;1030.4;;;18.1;38
74435;BME280;62867;52.038;29.256;2022-09-09T09:44:41;1030.5;;;18.2;38.7
74435;BME280;62867;52.038;29.256;2022-09-09T09:48:57;1030.5;;;18.3;38.8
74435;BME280;62867;52.038;29.256;2022-09-09T09:54:07;1030.5;;;18.4;38.5
74435;BME280;62867;52.038;29.256;2022-09-09T09:58:51;1030.5;;;18.5;38.3
74435;BME280;62867;52.038;29.256;2022-09-09T10:03:57;1030.5;;;18.6;38
74435;BME280;62867;52.038;29.256;2022-09-09T10:08:22;1030.5;;;18.7;37.5
74435;BME280;62867;52.038;29.256;2022-09-09T10:13:49;1030.5;;;18.6;36.6
74435;BME280;62867;52.038;29.256;2022-09-09T10:24:31;1030.5;;;18.4;36.8
74435;BME280;62867;52.038;29.256;2022-09-09T10:29:13;1030.5;;;18.3;36.9
74435;BME280;62867;52.038;29.256;2022-09-09T10:33:43;1030.5;;;18.4;36.7
74435;BME280;62867;52.038;29.256;2022-09-09T10:39:49;1030.4;;;18.5;37.6
74435;BME280;62867;52.038;29.256;2022-09-09T10:44:15;1030.5;;;18.6;37.2
74435;BME280;62867;52.038;29.256;2022-09-09T10:49:32;1030.5;;;18.9;37.9
74435;BME280;62867;52.038;29.256;2022-09-09T10:53:29;1030.5;;;19;37.2
74435;BME280;62867;52.038;29.256;2022-09-09T10:58:33;1030.5;;;19.1;37.4
74435;BME280;62867;52.038;29.256;2022-09-09T11:03:39;1030.4;;;19.2;36.9
74435;BME280;62867;52.038;29.256;2022-09-09T11:08:34;1030.4;;;19.3;36.6
74435;BME280;62867;52.038;29.256;2022-09-09T11:13:58;1030.4;;;19.5;36
74435;BME280;62867;52.038;29.256;2022-09-09T11:18:41;1030.4;;;19.4;35.5
74435;BME280;62867;52.038;29.256;2022-09-09T11:23:57;1030.4;;;19.4;36.1
74435;BME280;62867;52.038;29.256;2022-09-09T11:29:03;1030.3;;;19.4;35.8
74435;BME280;62867;52.038;29.256;2022-09-09T11:34:12;1030.3;;;19.3;35.8
74435;BME280;62867;52.038;29.256;2022-09-09T11:39:33;1030.2;;;19.4;36.5
74435;BME280;62867;52.038;29.256;2022-09-09T11:43:57;1030.3;;;19.4;36
74435;BME280;62867;52.038;29.256;2022-09-09T11:48:35;1030.2;;;19.4;36.3
74435;BME280;62867;52.038;29.256;2022-09-09T11:53:23;1030.2;;;19.4;36.5
74435;BME280;62867;52.038;29.256;2022-09-09T11:58:22;1030.2;;;19.2;36
74435;BME280;62867;52.038;29.256;2022-09-09T12:04:01;1030.2;;;19.1;35.9
74435;BME280;62867;52.038;29.256;2022-09-09T12:08:55;1030.2;;;18.8;36.3
74435;BME280;62867;52.038;29.256;2022-09-09T12:14:19;1030.2;;;18.6;36.6
74435;BME280;62867;52.038;29.256;2022-09-09T12:19:02;1030.2;;;18.5;37.1
74435;BME280;62867;52.038;29.256;2022-09-09T12:23:48;1030.2;;;18.5;37.1
74435;BME280;62867;52.038;29.256;2022-09-09T12:33:44;1030.1;;;18.5;35.8
74435;BME280;62867;52.038;29.256;2022-09-09T12:38:32;1030.1;;;18.6;37.1
74435;BME280;62867;52.038;29.256;2022-09-09T12:43:22;1030.1;;;18.6;36.3
74435;BME280;62867;52.038;29.256;2022-09-09T12:48:33;1030;;;18.5;36.5
74435;BME280;62867;52.038;29.256;2022-09-09T12:54:12;1030;;;18.4;36.8
74435;BME280;62867;52.038;29.256;2022-09-09T12:59:17;1030.1;;;18.3;37.4
74435;BME280;62867;52.038;29.256;2022-09-09T13:03:56;1030.1;;;18.4;36.9
74435;BME280;62867;52.038;29.256;2022-09-09T13:09:00;1030.1;;;18.5;37.4
74435;BME280;62867;52.038;29.256;2022-09-09T13:13:48;1030.1;;;18.6;37.6
74435;BME280;62867;52.038;29.256;2022-09-09T13:19:13;1030.1;;;18.7;37.6
74435;BME280;62867;52.038;29.256;2022-09-09T13:24:28;1030.1;;;18.6;36.6
74435;BME280;62867;52.038;29.256;2022-09-09T13:29:15;1030.1;;;18.6;37
74435;BME280;62867;52.038;29.256;2022-09-09T13:33:22;1030.1;;;18.6;36.6
74435;BME280;62867;52.038;29.256;2022-09-09T13:38:23;1030.1;;;18.5;36.5
74435;BME280;62867;52.038;29.256;2022-09-09T13:43:57;1030.2;;;18.6;36.8
74435;BME280;62867;52.038;29.256;2022-09-09T13:48:41;1030.1;;;18.6;36.9
74435;BME280;62867;52.038;29.256;2022-09-09T13:53:41;1030.1;;;18.6;36.6
74435;BME280;62867;52.038;29.256;2022-09-09T13:58:57;1030.1;;;18.6;36.4
74435;BME280;62867;52.038;29.256;2022-09-09T14:04:00;1030;;;18.5;36.4
74435;BME280;62867;52.038;29.256;2022-09-09T14:08:55;1029.9;;;18.5;36.5
74435;BME280;62867;52.038;29.256;2022-09-09T14:13:58;1029.8;;;18.4;36.1
74435;BME280;62867;52.038;29.256;2022-09-09T14:19:14;1029.7;;;18.3;35.9
74435;BME280;62867;52.038;29.256;2022-09-09T14:23:21;1029.7;;;18.2;36.9
74435;BME280;62867;52.038;29.256;2022-09-09T14:28:21;1029.6;;;18.1;37.8
74435;BME280;62867;52.038;29.256;2022-09-09T14:33:44;1029.7;;;18;37.6
74435;BME280;62867;52.038;29.256;2022-09-09T14:39:10;1029.7;;;18;37.6
74435;BME280;62867;52.038;29.256;2022-09-09T14:43:54;1029.8;;;17.9;37.4
74435;BME280;62867;52.038;29.256;2022-09-09T14:48:56;1029.8;;;17.8;37.3
74435;BME280;62867;52.038;29.256;2022-09-09T14:53:56;1029.8;;;17.6;37.6
74435;BME280;62867;52.038;29.256;2022-09-09T14:58:44;1029.8;;;17.6;39.1
74435;BME280;62867;52.038;29.256;2022-09-09T15:03:22;1029.8;;;17.5;39.6
74435;BME280;62867;52.038;29.256;2022-09-09T15:08:54;1029.9;;;17.4;38.7
74435;BME280;62867;52.038;29.256;2022-09-09T15:13:32;1030;;;17.4;38.4
74435;BME280;62867;52.038;29.256;2022-09-09T15:18:32;1030;;;17.3;38.8
74435;BME280;62867;52.038;29.256;2022-09-09T15:23:42;1029.9;;;17.3;39
74435;BME280;62867;52.038;29.256;2022-09-09T15:29:12;1029.9;;;17.3;39.1
74435;BME280;62867;52.038;29.256;2022-09-09T15:33:58;1029.9;;;17.2;38.5
74435;BME280;62867;52.038;29.256;2022-09-09T15:38:44;1029.9;;;17.1;39.2
74435;BME280;62867;52.038;29.256;2022-09-09T15:43:32;1029.9;;;17;39.2
74435;BME280;62867;52.038;29.256;2022-09-09T15:49:16;1030;;;16.8;40.2
74435;BME280;62867;52.038;29.256;2022-09-09T15:54:11;1030;;;16.6;40.9
74435;BME280;62867;52.038;29.256;2022-09-09T15:58:59;1030.1;;;16.4;41.5
74435;BME280;62867;52.038;29.256;2022-09-09T16:03:40;1030.1;;;16.3;43.5
74435;BME280;62867;52.038;29.256;2022-09-09T16:08:22;1030.1;;;16.1;43.2
74435;BME280;62867;52.038;29.256;2022-09-09T16:13:34;1030.1;;;16;43.8
74435;BME280;62867;52.038;29.256;2022-09-09T16:18:43;1030.1;;;15.9;42.8
74435;BME280;62867;52.038;29.256;2022-09-09T16:23:42;1030.1;;;15.7;45.1
74435;BME280;62867;52.038;29.256;2022-09-09T16:28:48;1030.1;;;15.6;46
74435;BME280;62867;52.038;29.256;2022-09-09T16:34:08;1030;;;15.5;45.6
74435;BME280;62867;52.038;29.256;2022-09-09T16:38:56;1030;;;15.4;44.9
74435;BME280;62867;52.038;29.256;2022-09-09T16:44:12;1030.1;;;15.4;44.4
74435;BME280;62867;52.038;29.256;2022-09-09T16:49:11;1030.1;;;15.3;45.9
74435;BME280;62867;52.038;29.256;2022-09-09T16:53:58;1030.1;;;15.2;46.1
74435;BME280;62867;52.038;29.256;2022-09-09T16:58:42;1030.1;;;15.1;46.4
74435;BME280;62867;52.038;29.256;2022-09-09T17:03:56;1030;;;15;47.4
74435;BME280;62867;52.038;29.256;2022-09-09T17:09:11;1029.9;;;14.8;47.6
74435;BME280;62867;52.038;29.256;2022-09-09T17:13:58;1029.9;;;14.7;48.5
74435;BME280;62867;52.038;29.256;2022-09-09T17:18:58;1029.9;;;14.5;47.8
74435;BME280;62867;52.038;29.256;2022-09-09T17:23:56;1030;;;14.4;47.8
74435;BME280;62867;52.038;29.256;2022-09-09T17:28:22;1030;;;14.4;47.6
74435;BME280;62867;52.038;29.256;2022-09-09T17:33:58;1030;;;14.3;49.4
74435;BME280;62867;52.038;29.256;2022-09-09T17:38:56;1030;;;14.3;48.8
74435;BME280;62867;52.038;29.256;2022-09-09T17:43:22;1030;;;14.3;48.9
74435;BME280;62867;52.038;29.256;2022-09-09T17:48:22;1029.9;;;14.2;48.6
74435;BME280;62867;52.038;29.256;2022-09-09T17:53:22;1029.9;;;14.2;48.1
74435;BME280;62867;52.038;29.256;2022-09-09T17:59:16;1029.9;;;14.2;47.7
74435;BME280;62867;52.038;29.256;2022-09-09T18:04:14;1029.8;;;14.2;47.6
74435;BME280;62867;52.038;29.256;2022-09-09T18:08:48;1029.9;;;14.2;47.2
74435;BME280;62867;52.038;29.256;2022-09-09T18:13:22;1029.9;;;14.1;48.3
74435;BME280;62867;52.038;29.256;2022-09-09T18:19:13;1029.9;;;14.1;47.3
74435;BME280;62867;52.038;29.256;2022-09-09T18:24:14;1029.9;;;14.1;47.3
74435;BME280;62867;52.038;29.256;2022-09-09T18:28:22;1029.9;;;14.1;47.3
74435;BME280;62867;52.038;29.256;2022-09-09T18:33:33;1029.9;;;14.1;47.5
74435;BME280;62867;52.038;29.256;2022-09-09T18:38:31;1029.9;;;14;48
74435;BME280;62867;52.038;29.256;2022-09-09T18:43:32;1029.9;;;13.9;47.1
74435;BME280;62867;52.038;29.256;2022-09-09T18:48:42;1029.8;;;13.9;47.5
74435;BME280;62867;52.038;29.256;2022-09-09T18:53:42;1029.8;;;13.9;47.7
74435;BME280;62867;52.038;29.256;2022-09-09T18:58:59;1029.8;;;13.9;47.3
74435;BME280;62867;52.038;29.256;2022-09-09T19:03:46;1029.8;;;13.8;47.4
74435;BME280;62867;52.038;29.256;2022-09-09T19:08:44;1029.8;;;13.8;48.3
74435;BME280;62867;52.038;29.256;2022-09-09T19:14:13;1029.7;;;13.8;47.7
74435;BME280;62867;52.038;29.256;2022-09-09T19:18:57;1029.7;;;13.8;47.7
74435;BME280;62867;52.038;29.256;2022-09-09T19:23:32;1029.8;;;13.7;47.6
74435;BME280;62867;52.038;29.256;2022-09-09T19:28:22;1029.9;;;13.7;48.1
74435;BME280;62867;52.038;29.256;2022-09-09T19:33:42;1029.9;;;13.7;48.1
74435;BME280;62867;52.038;29.256;2022-09-09T19:39:08;1029.9;;;13.7;48.2
74435;BME280;62867;52.038;29.256;2022-09-09T19:43:57;1029.9;;;13.7;48.8
74435;BME280;62867;52.038;29.256;2022-09-09T19:49:06;1029.9;;;13.7;49.1
74435;BME280;62867;52.038;29.256;2022-09-09T19:53:57;1029.9;;;13.7;48.4
74435;BME280;62867;52.038;29.256;2022-09-09T19:59:00;1030;;;13.7;48.5
74435;BME280;62867;52.038;29.256;2022-09-09T20:03:44;1030;;;13.6;48.5
74435;BME280;62867;52.038;29.256;2022-09-09T20:08:56;1029.9;;;13.6;48.8
74435;BME280;62867;52.038;29.256;2022-09-09T20:13:22;1029.9;;;13.7;49.1
74435;BME280;62867;52.038;29.256;2022-09-09T20:18:22;1030;;;13.7;48.9
74435;BME280;62867;52.038;29.256;2022-09-09T20:23:22;1029.9;;;13.7;49.4
74435;BME280;62867;52.038;29.256;2022-09-09T20:29:13;1029.9;;;13.7;49.2
74435;BME280;62867;52.038;29.256;2022-09-09T20:34:13;1029.9;;;13.7;49.1
74435;BME280;62867;52.038;29.256;2022-09-09T20:38:46;1029.9;;;13.7;49.6
74435;BME280;62867;52.038;29.256;2022-09-09T20:43:32;1029.9;;;13.7;49.5
74435;BME280;62867;52.038;29.256;2022-09-09T20:49:12;1030;;;13.7;49.9
74435;BME280;62867;52.038;29.256;2022-09-09T20:54:15;1030;;;13.7;49.9
74435;BME280;62867;52.038;29.256;2022-09-09T20:58:46;1030;;;13.7;49.7
74435;BME280;62867;52.038;29.256;2022-09-09T21:03:58;1030;;;13.7;50
74435;BME280;62867;52.038;29.256;2022-09-09T21:08:40;1030;;;13.7;50.2
74435;BME280;62867;52.038;29.256;2022-09-09T21:13:22;1030.1;;;13.7;49.5
74435;BME280;62867;52.038;29.256;2022-09-09T21:18:42;1030.1;;;13.7;49.6
74435;BME280;62867;52.038;29.256;2022-09-09T21:23:56;1030.2;;;13.7;49.3
74435;BME280;62867;52.038;29.256;2022-09-09T21:28:32;1030.2;;;13.7;49.4
74435;BME280;62867;52.038;29.256;2022-09-09T21:33:58;1030.2;;;13.7;49.3
74435;BME280;62867;52.038;29.256;2022-09-09T21:38:44;1030.1;;;13.7;49.1
74435;BME280;62867;52.038;29.256;2022-09-09T21:44:12;1030.2;;;13.7;48.5
74435;BME280;62867;52.038;29.256;2022-09-09T21:49:00;1030.2;;;13.7;48
74435;BME280;62867;52.038;29.256;2022-09-09T21:53:32;1030.2;;;13.6;48.3
74435;BME280;62867;52.038;29.256;2022-09-09T21:58:32;1030.2;;;13.7;47.8
74435;BME280;62867;52.038;29.256;2022-09-09T22:03:32;1030.2;;;13.7;47.7
74435;BME280;62867;52.038;29.256;2022-09-09T22:08:56;1030.2;;;13.7;48
74435;BME280;62867;52.038;29.256;2022-09-09T22:14:12;1030.2;;;13.7;47.7
74435;BME280;62867;52.038;29.256;2022-09-09T22:18:32;1030.1;;;13.7;47.6
74435;BME280;62867;52.038;29.256;2022-09-09T22:23:55;1030.1;;;13.7;47.9
74435;BME280;62867;52.038;29.256;2022-09-09T22:28:32;1030.1;;;13.7;47.8
74435;BME280;62867;52.038;29.256;2022-09-09T22:33:36;1030;;;13.7;47.5
74435;BME280;62867;52.038;29.256;2022-09-09T22:38:44;1030;;;13.6;48
74435;BME280;62867;52.038;29.256;2022-09-09T22:43:56;1030;;;13.6;47.6
74435;BME280;62867;52.038;29.256;2022-09-09T22:48:22;1030;;;13.6;47.6
74435;BME280;62867;52.038;29.256;2022-09-09T22:54:03;1030;;;13.6;47.7
74435;BME280;62867;52.038;29.256;2022-09-09T22:58:33;1030;;;13.6;47.5
74435;BME280;62867;52.038;29.256;2022-09-09T23:04:08;1029.9;;;13.6;48.2
74435;BME280;62867;52.038;29.256;2022-09-09T23:08:57;1029.9;;;13.7;48.4
74435;BME280;62867;52.038;29.256;2022-09-09T23:13:35;1029.8;;;13.7;47.8
74435;BME280;62867;52.038;29.256;2022-09-09T23:18:36;1029.8;;;13.7;48
74435;BME280;62867;52.038;29.256;2022-09-09T23:24:11;1029.8;;;13.6;48
74435;BME280;62867;52.038;29.256;2022-09-09T23:29:10;1029.7;;;13.6;47.6
74435;BME280;62867;52.038;29.256;2022-09-09T23:34:10;1029.7;;;13.6;47.9
74435;BME280;62867;52.038;29.256;2022-09-09T23:38:40;1029.7;;;13.5;48.1
74435;BME280;62867;52.038;29.256;2022-09-09T23:43:22;1029.6;;;13.5;47.8
74435;BME280;62867;52.038;29.256;2022-09-09T23:49:10;1029.6;;;13.5;48.6
74435;BME280;62867;52.038;29.256;2022-09-09T23:53:43;1029.6;;;13.5;48.5
74435;BME280;62867;52.038;29.256;2022-09-09T23:58:22;1029.6;;;13.5;49.1
